createdAt,value
2018-07-14T14:28:20.861Z,6.43
2018-07-14T14:30:48.974Z,7.27
2018-07-14T14:33:17.109Z,6.30
2018-07-14T14:35:45.236Z,7.03
2018-07-14T14:38:13.369Z,6.63
2018-07-14T14:40:41.488Z,6.40
2018-07-14T14:43:09.612Z,6.00
2018-07-14T14:45:37.763Z,6.00
2018-07-14T14:48:05.894Z,6.17
2018-07-14T14:50:34.033Z,6.70
2018-07-14T14:53:02.188Z,6.53
2018-07-14T14:55:31.300Z,6.50
2018-07-14T14:57:59.425Z,6.70
2018-07-14T15:00:27.393Z,6.70
2018-07-14T15:03:00.449Z,7.90
2018-07-14T15:05:28.563Z,6.90
2018-07-14T15:07:58.769Z,7.20
2018-07-14T15:10:50.177Z,7.40
2018-07-14T15:13:25.154Z,7.30
2018-07-14T15:16:00.110Z,7.70
2018-07-14T15:18:28.315Z,7.53
2018-07-14T15:20:56.481Z,7.40
2018-07-14T15:23:24.615Z,7.70
2018-07-14T15:25:52.766Z,8.20
2018-07-14T15:28:20.908Z,7.50
2018-07-14T15:30:49.029Z,7.50
2018-07-14T15:33:17.348Z,7.37
2018-07-14T15:35:45.310Z,8.00
2018-07-14T15:38:13.424Z,8.27
2018-07-14T15:40:41.556Z,8.27
2018-07-14T15:43:09.678Z,8.90
2018-07-14T15:45:37.842Z,8.43
2018-07-14T15:48:06.007Z,8.50
2018-07-14T15:50:34.148Z,8.00
2018-07-14T15:53:02.289Z,7.60
2018-07-14T15:55:30.448Z,7.97
2018-07-14T15:57:58.580Z,7.63
2018-07-14T16:00:26.731Z,7.87
2018-07-14T16:02:54.870Z,7.50
2018-07-14T16:05:23.823Z,7.40
2018-07-14T16:08:05.633Z,7.20
2018-07-14T16:10:38.402Z,7.20
2018-07-14T16:13:06.638Z,7.10
2018-07-14T16:15:34.834Z,7.87
2018-07-14T16:18:02.959Z,7.90
2018-07-14T16:20:31.084Z,7.43
2018-07-14T16:22:59.209Z,6.73
2018-07-14T16:25:27.357Z,7.00
2018-07-14T16:27:55.500Z,7.30
2018-07-14T16:30:23.629Z,7.50
2018-07-14T16:32:51.759Z,7.30
2018-07-14T16:35:19.958Z,8.20
2018-07-14T16:37:48.060Z,7.53
2018-07-14T16:40:16.221Z,8.03
2018-07-14T16:42:44.321Z,8.03
2018-07-14T16:45:12.452Z,7.70
2018-07-14T16:47:40.577Z,8.33
2018-07-14T16:50:08.952Z,8.03
2018-07-14T16:52:37.598Z,7.50
2018-07-14T16:55:06.169Z,7.13
2018-07-14T16:57:34.368Z,7.47
2018-07-14T17:00:02.799Z,6.60
2018-07-14T17:02:33.244Z,7.03
2018-07-14T17:05:01.380Z,7.70
2018-07-14T17:07:31.505Z,8.43
2018-07-14T17:09:59.722Z,7.60
2018-07-14T17:12:28.395Z,7.17
2018-07-14T17:14:56.589Z,7.20
2018-07-14T17:17:24.748Z,7.10
2018-07-14T17:19:52.649Z,7.93
2018-07-14T17:22:20.791Z,7.80
2018-07-14T17:24:48.683Z,7.27
2018-07-14T17:27:16.831Z,7.90
2018-07-14T17:29:44.949Z,7.47
2018-07-14T17:32:13.114Z,7.40
2018-07-14T17:34:41.302Z,7.03
2018-07-14T17:37:09.524Z,6.90
2018-07-14T17:39:37.672Z,7.20
2018-07-14T17:42:06.028Z,6.53
2018-07-14T17:44:34.142Z,8.30
2018-07-14T17:47:02.324Z,7.27
2018-07-14T17:49:30.477Z,7.23
2018-07-14T17:51:58.703Z,7.43
2018-07-14T17:54:26.744Z,8.03
2018-07-14T17:56:54.898Z,7.43
2018-07-14T17:59:23.041Z,7.50
2018-07-14T18:01:51.185Z,7.00
2018-07-14T18:04:19.324Z,8.10
2018-07-14T18:06:47.445Z,7.30
2018-07-14T18:09:15.603Z,7.97
2018-07-14T18:11:44.761Z,8.20
2018-07-14T18:14:12.893Z,8.23
2018-07-14T18:16:41.085Z,8.90
2018-07-14T18:19:09.206Z,8.30
2018-07-14T18:21:37.318Z,8.73
2018-07-14T18:24:06.493Z,8.33
2018-07-14T18:26:34.722Z,8.30
2018-07-14T18:29:04.002Z,7.80
2018-07-14T18:31:32.181Z,7.90
2018-07-14T18:34:00.389Z,7.90
2018-07-14T18:36:28.541Z,8.00
2018-07-14T18:38:56.722Z,7.77
2018-07-14T18:41:24.865Z,7.90
2018-07-14T18:43:53.095Z,7.90
2018-07-14T18:46:21.225Z,8.30
2018-07-14T18:48:49.357Z,9.70
2018-07-14T18:51:17.466Z,9.50
2018-07-14T18:53:45.696Z,10.10
2018-07-14T18:56:13.801Z,10.10
2018-07-14T18:58:41.929Z,10.43
2018-07-14T19:01:10.046Z,10.60
2018-07-14T19:03:38.180Z,10.27
2018-07-14T19:06:06.268Z,11.73
2018-07-14T19:08:34.384Z,10.63
2018-07-14T19:11:02.526Z,11.40
2018-07-14T19:13:30.653Z,11.00
2018-07-14T19:15:58.778Z,10.67
2018-07-14T19:18:26.945Z,10.70
2018-07-14T19:20:55.180Z,11.10
2018-07-14T19:23:23.580Z,10.50
2018-07-14T19:25:51.816Z,10.30
2018-07-14T19:28:20.874Z,10.40
2018-07-14T19:30:49.114Z,11.80
2018-07-14T19:33:17.337Z,11.70
2018-07-14T19:35:45.582Z,11.83
2018-07-14T19:38:13.732Z,10.73
2018-07-14T19:40:41.861Z,11.53
2018-07-14T19:43:10.157Z,10.70
2018-07-14T19:45:38.297Z,12.23
2018-07-14T19:48:06.440Z,12.80
2018-07-14T19:50:34.344Z,12.40
2018-07-14T19:53:02.493Z,13.00
2018-07-14T19:55:30.703Z,12.23
2018-07-14T19:57:58.814Z,12.00
2018-07-14T20:00:26.969Z,12.10
2018-07-14T20:02:55.796Z,11.90
2018-07-14T20:05:23.923Z,11.47
2018-07-14T20:07:52.124Z,12.60
2018-07-14T20:10:21.240Z,11.10
2018-07-14T20:12:50.397Z,11.13
2018-07-14T20:15:18.596Z,12.30
2018-07-14T20:17:46.726Z,11.80
2018-07-14T20:20:14.938Z,12.07
2018-07-14T20:22:43.216Z,12.47
2018-07-14T20:25:11.589Z,12.20
2018-07-14T20:27:40.823Z,11.60
2018-07-14T20:30:10.081Z,12.03
2018-07-14T20:32:38.150Z,11.33
2018-07-14T20:35:06.350Z,11.53
2018-07-14T20:37:34.510Z,10.40
2018-07-14T20:40:02.733Z,10.07
2018-07-14T20:42:30.964Z,10.93
2018-07-14T20:44:59.159Z,11.30
2018-07-14T20:47:27.337Z,10.17
2018-07-14T20:49:55.525Z,10.50
2018-07-14T20:52:23.678Z,11.70
2018-07-14T20:54:51.835Z,10.67
2018-07-14T20:57:20.033Z,10.77
2018-07-14T20:59:48.219Z,11.97
2018-07-14T21:02:16.352Z,10.83
2018-07-14T21:04:44.541Z,10.83
2018-07-14T21:07:12.692Z,11.20
2018-07-14T21:09:40.879Z,10.20
2018-07-14T21:12:09.075Z,9.83
2018-07-14T21:14:37.322Z,9.73
2018-07-14T21:17:05.493Z,9.90
2018-07-14T21:19:33.689Z,14.63
2018-07-14T21:22:01.814Z,8.87
2018-07-14T21:24:30.006Z,9.20
2018-07-14T21:26:58.163Z,8.20
2018-07-14T21:29:26.484Z,7.43
2018-07-14T21:31:55.673Z,8.20
2018-07-14T21:34:25.897Z,7.53
2018-07-14T21:36:54.144Z,7.70
2018-07-14T21:39:22.353Z,6.87
2018-07-14T21:41:51.525Z,6.80
2018-07-14T21:44:19.709Z,6.40
2018-07-14T21:46:51.258Z,5.97
2018-07-14T21:49:20.469Z,6.47
2018-07-14T21:51:55.959Z,6.53
2018-07-14T21:54:25.101Z,5.30
2018-07-14T21:56:56.454Z,8.20
2018-07-14T21:59:32.564Z,7.10
2018-07-14T22:02:16.870Z,8.03
2018-07-14T22:04:48.525Z,7.50
2018-07-14T22:10:16.363Z,5.83
2018-07-14T22:12:44.485Z,6.43
2018-07-14T22:15:14.627Z,6.40
2018-07-14T22:17:48.498Z,5.70
2018-07-14T22:26:08.014Z,5.20
2018-07-14T22:31:45.845Z,5.40
2018-07-14T22:34:17.529Z,5.90
2018-07-14T22:36:50.293Z,6.03
2018-07-14T22:45:14.046Z,5.80
2018-07-14T22:47:43.173Z,5.97
2018-07-14T22:53:08.132Z,5.43
2018-07-14T22:55:37.293Z,5.53
2018-07-14T22:58:22.777Z,5.33
2018-07-14T23:00:54.239Z,5.60
2018-07-14T23:09:09.543Z,5.47
2018-07-14T23:11:42.324Z,5.10
2018-07-14T23:14:30.493Z,5.10
2018-07-14T23:16:58.662Z,5.70
2018-07-14T23:19:27.845Z,5.80
2018-07-14T23:22:01.759Z,5.10
2018-07-14T23:24:46.567Z,5.00
2018-07-14T23:27:14.701Z,5.57
2018-07-14T23:35:40.253Z,5.70
2018-07-14T23:41:21.044Z,6.10
2018-07-14T23:43:53.525Z,5.73
2018-07-14T23:49:30.904Z,6.20
2018-07-14T23:51:59.118Z,6.50
2018-07-14T23:54:27.268Z,5.97
2018-07-14T23:56:55.881Z,6.30
2018-07-14T23:59:24.022Z,6.03
